Welcome to Des Moines Iowa Weather. I am an independent private personal weather station on the Northwest Side of Des Moines, Iowa. Just East of Windsor Heights and just West of Glendale . This site is also mobile friendly.

There are no active watches, warnings or advisories


Visit our other weather sites:

Historical Data

Weather Station Setup



Weather Underground History page Text

Daily Summary for February 3, 2018 Units:  English    Metric   Both
« Previous Day
Next Day »
Daily Weekly Monthly Yearly Custom
  High: Low: Average:
Temperature: 43.8 °F 24.4 °F 34.5 °F
Dew Point: 32.0 °F 13.0 °F 22.9 °F
Humidity: 83 % 43 % 63 %
Wind Speed: 8.0 mph 0.0 mph 1.5 mph
Wind Gust: 16.0 mph - -
Wind:- - South
Pressure: 30.18 in 29.67 in -
Precipitation: 0.04 in    
Historical Graphs
 
 
Tabular Data for February 3, 2018
Time Temperature Dew Point Pressure Wind Wind Speed Wind Gust Humidity Rainfall Rate (Hourly)
00:07 24.4 °F 13.0 °F 30.18 in SSW 4.0 mph 6.0 mph 62 % 0.00 in
00:22 24.7 °F 13.0 °F 30.17 in SSW 3.0 mph 6.0 mph 62 % 0.00 in
00:37 24.9 °F 13.0 °F 30.17 in Calm   3.0 mph 62 % 0.00 in
00:52 25.2 °F 14.0 °F 30.16 in SSE 1.0 mph 5.0 mph 62 % 0.00 in
01:07 25.5 °F 14.0 °F 30.15 in Calm   3.0 mph 63 % 0.00 in
01:22 25.8 °F 15.0 °F 30.14 in Calm   1.0 mph 63 % 0.00 in
01:37 26.3 °F 15.0 °F 30.13 in Calm   4.0 mph 62 % 0.00 in
01:53 26.7 °F 15.0 °F 30.12 in South 2.0 mph 4.0 mph 61 % 0.00 in
02:08 27.3 °F 15.0 °F 30.12 in South 2.0 mph 5.0 mph 60 % 0.00 in
02:23 27.7 °F 15.0 °F 30.11 in Calm   2.0 mph 60 % 0.00 in
02:39 28.0 °F 16.0 °F 30.10 in South 3.0 mph 3.0 mph 60 % 0.00 in
02:53 28.3 °F 15.0 °F 30.09 in South 1.0 mph 4.0 mph 59 % 0.00 in
03:08 28.6 °F 16.0 °F 30.09 in Calm   4.0 mph 59 % 0.00 in
03:27 28.8 °F 16.0 °F 30.08 in Calm   3.0 mph 58 % 0.00 in
03:38 29.1 °F 16.0 °F 30.07 in Calm   3.0 mph 58 % 0.00 in
03:53 29.3 °F 16.0 °F 30.05 in Calm   3.0 mph 58 % 0.00 in
04:08 29.3 °F 16.0 °F 30.05 in Calm   3.0 mph 58 % 0.00 in
04:23 29.3 °F 16.0 °F 30.05 in Calm   3.0 mph 58 % 0.00 in
04:38 29.6 °F 16.0 °F 30.04 in South 1.0 mph 4.0 mph 57 % 0.00 in
04:53 29.8 °F 16.0 °F 30.04 in South 2.0 mph 3.0 mph 57 % 0.00 in
05:08 29.9 °F 16.0 °F 30.02 in Calm   6.0 mph 57 % 0.00 in
05:23 29.9 °F 16.0 °F 30.02 in SW 2.0 mph 3.0 mph 57 % 0.00 in
05:38 29.9 °F 16.0 °F 30.01 in South 1.0 mph 3.0 mph 57 % 0.00 in
05:53 29.9 °F 17.0 °F 30.00 in South 2.0 mph 2.0 mph 58 % 0.00 in
06:08 29.9 °F 17.0 °F 30.00 in Calm   3.0 mph 58 % 0.00 in
06:23 29.9 °F 17.0 °F 29.99 in Calm   3.0 mph 58 % 0.00 in
06:38 29.9 °F 17.0 °F 29.98 in Calm   3.0 mph 59 % 0.00 in
06:53 30.1 °F 17.0 °F 29.97 in SSW 1.0 mph 4.0 mph 59 % 0.00 in
07:08 30.5 °F 17.0 °F 29.97 in Calm   6.0 mph 58 % 0.00 in
07:23 30.8 °F 17.0 °F 29.95 in Calm   6.0 mph 58 % 0.00 in
07:38 31.2 °F 17.0 °F 29.95 in SSW 3.0 mph 5.0 mph 57 % 0.00 in
07:53 31.5 °F 18.0 °F 29.93 in SE 4.0 mph 6.0 mph 57 % 0.00 in
08:09 31.8 °F 18.0 °F 29.93 in Calm   4.0 mph 57 % 0.00 in
08:24 32.1 °F 18.0 °F 29.93 in Calm   6.0 mph 57 % 0.00 in
08:39 32.6 °F 18.0 °F 29.91 in SSW 1.0 mph 4.0 mph 56 % 0.00 in
08:54 33.2 °F 19.0 °F 29.91 in Calm   5.0 mph 56 % 0.00 in
09:09 34.2 °F 19.0 °F 29.91 in Calm   5.0 mph 55 % 0.00 in
09:24 35.3 °F 20.0 °F 29.90 in South 2.0 mph 6.0 mph 54 % 0.00 in
09:39 36.5 °F 20.0 °F 29.89 in SSW 2.0 mph 6.0 mph 52 % 0.00 in
09:54 37.9 °F 21.0 °F 29.89 in SE 2.0 mph 6.0 mph 50 % 0.00 in
10:09 39.3 °F 21.0 °F 29.88 in Calm   8.0 mph 49 % 0.00 in
10:24 40.2 °F 21.0 °F 29.87 in SW 5.0 mph 8.0 mph 47 % 0.00 in
10:39 41.0 °F 21.0 °F 29.87 in Calm   11.0 mph 46 % 0.00 in
10:54 41.7 °F 22.0 °F 29.86 in SSW 1.0 mph 6.0 mph 45 % 0.00 in
11:09 42.3 °F 22.0 °F 29.86 in SSW 1.0 mph 3.0 mph 45 % 0.00 in
11:24 43.2 °F 22.0 °F 29.85 in South 2.0 mph 5.0 mph 43 % 0.00 in
11:39 43.8 °F 24.0 °F 29.84 in SE 2.0 mph 7.0 mph 45 % 0.00 in
11:54 43.4 °F 24.0 °F 29.82 in North 1.0 mph 4.0 mph 47 % 0.00 in
12:09 42.8 °F 24.0 °F 29.81 in WNW 2.0 mph 7.0 mph 47 % 0.00 in
12:24 42.5 °F 26.0 °F 29.80 in WSW 4.0 mph 10.0 mph 52 % 0.00 in
12:40 41.5 °F 28.0 °F 29.77 in SSW 1.0 mph 10.0 mph 58 % 0.00 in
12:55 40.3 °F 29.0 °F 29.75 in SW 1.0 mph 7.0 mph 65 % 0.02 in
13:10 39.3 °F 31.0 °F 29.73 in South 3.0 mph 5.0 mph 72 % 0.04 in
13:25 38.8 °F 31.0 °F 29.71 in South 2.0 mph 5.0 mph 74 % 0.04 in
13:40 40.9 °F 31.0 °F 29.70 in SSW 1.0 mph 5.0 mph 68 % 0.04 in
13:55 41.3 °F 30.0 °F 29.68 in South 1.0 mph 6.0 mph 65 % 0.02 in
14:10 41.5 °F 29.0 °F 29.68 in SSW 3.0 mph 7.0 mph 61 % 0.00 in
14:25 41.6 °F 28.0 °F 29.67 in Calm   8.0 mph 58 % 0.00 in
14:40 41.8 °F 29.0 °F 29.70 in West 2.0 mph 6.0 mph 60 % 0.00 in
14:55 41.8 °F 28.0 °F 29.69 in Calm   2.0 mph 58 % 0.00 in
15:12 41.8 °F 29.0 °F 29.68 in West 1.0 mph 1.0 mph 60 % 0.00 in
15:25 41.8 °F 28.0 °F 29.68 in Calm   1.0 mph 59 % 0.00 in
15:40 42.0 °F 28.0 °F 29.68 in Calm   2.0 mph 59 % 0.00 in
15:55 42.0 °F 29.0 °F 29.69 in Calm   3.0 mph 60 % 0.00 in
16:10 41.8 °F 30.0 °F 29.69 in Calm   1.0 mph 64 % 0.00 in
16:25 41.5 °F 32.0 °F 29.69 in Calm   1.0 mph 68 % 0.00 in
16:40 41.0 °F 32.0 °F 29.69 in Calm     69 % 0.00 in
16:55 40.6 °F 32.0 °F 29.69 in Calm     70 % 0.00 in
17:10 40.1 °F 31.0 °F 29.68 in Calm   2.0 mph 71 % 0.00 in
17:25 39.7 °F 31.0 °F 29.68 in Calm     72 % 0.00 in
17:40 39.5 °F 32.0 °F 29.70 in Calm     73 % 0.00 in
17:55 39.2 °F 31.0 °F 29.69 in Calm     73 % 0.00 in
18:10 38.9 °F 31.0 °F 29.70 in Calm     73 % 0.00 in
18:25 38.4 °F 30.0 °F 29.70 in Calm     73 % 0.00 in
18:40 38.0 °F 30.0 °F 29.70 in Calm     74 % 0.00 in
18:55 37.7 °F 30.0 °F 29.70 in Calm     74 % 0.00 in
19:10 37.1 °F 30.0 °F 29.70 in Calm   2.0 mph 75 % 0.00 in
19:25 36.7 °F 30.0 °F 29.71 in Calm     76 % 0.00 in
19:40 36.3 °F 30.0 °F 29.71 in Calm     77 % 0.00 in
19:55 36.1 °F 30.0 °F 29.71 in West 1.0 mph 2.0 mph 77 % 0.00 in
20:10 36.8 °F 30.0 °F 29.71 in West 1.0 mph 2.0 mph 75 % 0.00 in
20:25 37.8 °F 30.0 °F 29.72 in NW 3.0 mph 5.0 mph 72 % 0.00 in
20:40 38.7 °F 29.0 °F 29.73 in NW 3.0 mph 10.0 mph 69 % 0.00 in
20:55 37.8 °F 30.0 °F 29.74 in NNW 6.0 mph 16.0 mph 72 % 0.00 in
21:10 35.7 °F 29.0 °F 29.74 in North 5.0 mph 10.0 mph 75 % 0.00 in
21:25 34.4 °F 28.0 °F 29.77 in North 8.0 mph 12.0 mph 78 % 0.00 in
21:40 33.0 °F 27.0 °F 29.78 in North 4.0 mph 14.0 mph 79 % 0.00 in
21:55 31.6 °F 26.0 °F 29.80 in North 6.0 mph 16.0 mph 80 % 0.00 in
22:10 30.7 °F 26.0 °F 29.80 in North 4.0 mph 15.0 mph 81 % 0.00 in
22:25 30.2 °F 25.0 °F 29.82 in North 3.0 mph 11.0 mph 82 % 0.00 in
22:40 29.8 °F 25.0 °F 29.83 in North 8.0 mph 12.0 mph 82 % 0.00 in
22:55 29.2 °F 24.0 °F 29.84 in North 3.0 mph 10.0 mph 82 % 0.00 in
23:10 27.4 °F 22.0 °F 29.85 in NE 7.0 mph 12.0 mph 81 % 0.00 in
23:25 26.0 °F 21.0 °F 29.87 in North 5.0 mph 14.0 mph 82 % 0.00 in
23:40 25.2 °F 20.0 °F 29.88 in NNE 4.0 mph 16.0 mph 82 % 0.00 in
23:55 24.9 °F 20.0 °F 29.89 in North 5.0 mph 13.0 mph 83 % 0.00 in
Des Moines Weather and Climate
Compliments of Weather Underground - 3 mb

Script developed by  Jim McMurry - jmcmurry@mwt.net Adapted for the template by  Wim van der Kuil - Leuven-Template.eu

You find our weather info also at:

Weather Underground

Equipment we use:

Weather-station
Davis VP2 Plus

Weather-program
Davis Weatherlink.Com

Weather-server
iMac (Retina 4K, 21.5-inch, Late 2015)

Provider
Hostmonster.com

Davis VP2 Plus

Davis Weatherlink.Com

iMac (Retina 4K, 21.5-inch, Late 2015)

Hostmonster.com